リヨン の空港の天気 - METARとTAF

サン=テグジュペリ国際空港(リヨン) ( LFLL / LYS ) - フランス リヨン
飛行場実況気象(Metar)
観測時間09/25 22:00 CEST (09/25 20:00 UTC)
風向・風速北北西 3m/s
視程10km以上
天気現象
なし
気温14℃
湿度88%
気圧1015hPa
METARLFLL 252000Z 34006KT CAVOK 14/12 Q1015 NOSIG
過去の天気等 Google飛行場航空写真 Wunderground天気予報

過去48時間のMETAR

飛行場予報(TAF)
発表時間: 9/25 19:00 CEST (9/25 17:00 UTC)
予報対象時間: 25日20時 CEST ~ 27日2時 CEST
風向・風速不定 2m/s
視程10km以上
全天の8割程度の雲 雲底高度 910m
25日20時 CEST ~ 25日23時 CEST に 確率 30% で一時的に
視程4000m
天気現象しゅう雨
全天の8割程度の塔状積雲 雲底高度 910m
26日5時 CEST ~ 26日11時 CEST に一時的に
視程4000m
天気現象もや
全天の8割程度の雲 雲底高度 370m
26日5時 CEST ~ 26日10時 CEST に 確率 40% で一時的に
視程400m
天気現象
全天の8割程度の雲 雲底高度 90m
26日11時 CEST ~ 26日14時 CEST に徐々に
なし
26日20時 CEST ~ 26日22時 CEST に徐々に
風向・風速南南西 6m/s
天気現象弱い雨
全天の4割程度の雲 雲底高度 610m
全天を覆う雲 雲底高度 1520m
26日23時 CEST ~ 27日1時 CEST に一時的に
視程3000m
天気現象
TAF LFLL 251700Z 2518/2624 VRB03KT 9999 BKN030
PROB30 TEMPO 2518/2521 4000 SHRA BKN030TCU
TEMPO 2603/2609 4000 BR BKN012
PROB40 TEMPO 2603/2608 0400 FG BKN003
BECMG 2609/2612 NSC
BECMG 2618/2620 20012KT -RA SCT020 OVC050
TEMPO 2621/2623 3000 RA